Map

Track Data

SID SEASON NUMBER BASIN SUBBASIN NAME ISO_TIME NATURE LAT LON WMO_WIND WMO_PRES WMO_AGENCY TRACK_TYPE DIST2LAND LANDFALL IFLAG USA_AGENCY USA_ATCF_ID USA_LAT USA_LON USA_RECORD USA_STATUS USA_WIND USA_PRES USA_SSHS USA_R34_NE USA_R34_SE USA_R34_SW USA_R34_NW USA_R50_NE USA_R50_SE USA_R50_SW USA_R50_NW USA_R64_NE USA_R64_SE USA_R64_SW USA_R64_NW USA_POCI USA_ROCI USA_RMW USA_EYE TOKYO_LAT TOKYO_LON TOKYO_GRADE TOKYO_WIND TOKYO_PRES TOKYO_R50_DIR TOKYO_R50_LONG TOKYO_R50_SHORT TOKYO_R30_DIR TOKYO_R30_LONG TOKYO_R30_SHORT TOKYO_LAND CMA_LAT CMA_LON CMA_CAT CMA_WIND CMA_PRES HKO_LAT HKO_LON HKO_CAT HKO_WIND HKO_PRES NEWDELHI_LAT NEWDELHI_LON NEWDELHI_GRADE NEWDELHI_WIND NEWDELHI_PRES NEWDELHI_CI NEWDELHI_DP NEWDELHI_POCI REUNION_LAT REUNION_LON REUNION_TYPE REUNION_WIND REUNION_PRES REUNION_TNUM REUNION_CI REUNION_RMW REUNION_R34_NE REUNION_R34_SE REUNION_R34_SW REUNION_R34_NW REUNION_R50_NE REUNION_R50_SE REUNION_R50_SW REUNION_R50_NW REUNION_R64_NE REUNION_R64_SE REUNION_R64_SW REUNION_R64_NW BOM_LAT BOM_LON BOM_TYPE BOM_WIND BOM_PRES BOM_TNUM BOM_CI BOM_RMW BOM_R34_NE BOM_R34_SE BOM_R34_SW BOM_R34_NW BOM_R50_NE BOM_R50_SE BOM_R50_SW BOM_R50_NW BOM_R64_NE BOM_R64_SE BOM_R64_SW BOM_R64_NW BOM_ROCI BOM_POCI BOM_EYE BOM_POS_METHOD BOM_PRES_METHOD NADI_LAT NADI_LON NADI_CAT NADI_WIND NADI_PRES WELLINGTON_LAT WELLINGTON_LON WELLINGTON_WIND WELLINGTON_PRES DS824_LAT DS824_LON DS824_STAGE DS824_WIND DS824_PRES TD9636_LAT TD9636_LON TD9636_STAGE TD9636_WIND TD9636_PRES TD9635_LAT TD9635_LON TD9635_WIND TD9635_PRES TD9635_ROCI NEUMANN_LAT NEUMANN_LON NEUMANN_CLASS NEUMANN_WIND NEUMANN_PRES MLC_LAT MLC_LON MLC_CLASS MLC_WIND MLC_PRES USA_GUST BOM_GUST BOM_GUST_PER REUNION_GUST REUNION_GUST_PER USA_SEAHGT USA_SEARAD_NE USA_SEARAD_SE USA_SEARAD_SW USA_SEARAD_NW STORM_SPEED STORM_DIR
1902032S07435 1902 2 SI MM NOT_NAMED 1902-02-01 06:00:00 NR -6.60000 75.2000 reunion main 1521 1521 _____O________ -1 -6.60000 75.2000 99 9.90000 6 233
1902032S07435 1902 2 SI MM NOT_NAMED 1902-02-01 09:00:00 NR -6.78447 74.9586 main 1550 1550 _____P________ -1 -6.78447 74.9586 99 6 233
1902032S07435 1902 2 SI MM NOT_NAMED 1902-02-01 12:00:00 NR -6.97034 74.7139 main 1583 1583 _____P________ -1 -6.97034 74.7139 99 6 233
1902032S07435 1902 2 SI MM NOT_NAMED 1902-02-01 15:00:00 NR -7.15915 74.4628 main 1613 1613 _____P________ -1 -7.15915 74.4628 99 6 233
1902032S07435 1902 2 SI MM NOT_NAMED 1902-02-01 18:00:00 NR -7.35239 74.2021 main 1647 1647 _____P________ -1 -7.35239 74.2021 99 7 233
1902032S07435 1902 2 SI MM NOT_NAMED 1902-02-01 21:00:00 NR -7.55159 73.9287 main 1681 1681 _____P________ -1 -7.55159 73.9287 99 7 234
1902032S07435 1902 2 SI MM NOT_NAMED 1902-02-02 00:00:00 NR -7.75826 73.6393 main 1716 1716 _____P________ -1 -7.75826 73.6393 99 7 235
1902032S07435 1902 2 SI MM NOT_NAMED 1902-02-02 03:00:00 NR -7.97390 73.3308 main 1750 1750 _____P________ -1 -7.97390 73.3308 99 8 235
1902032S07435 1902 2 SI MM NOT_NAMED 1902-02-02 06:00:00 NR -8.20000 73.0000 reunion main 1785 1785 _____O________ -1 -8.20000 73.0000 99 9.90000 8 236
1902032S07435 1902 2 SI MM NOT_NAMED 1902-02-02 09:00:00 NR -8.43733 72.6450 main 1825 1825 _____P________ -1 -8.43733 72.6450 99 9 236
1902032S07435 1902 2 SI MM NOT_NAMED 1902-02-02 12:00:00 NR -8.68382 72.2698 main 1871 1871 _____P________ -1 -8.68382 72.2698 99 9 237
1902032S07435 1902 2 SI MM NOT_NAMED 1902-02-02 15:00:00 NR -8.93666 71.8798 main 1912 1912 _____P________ -1 -8.93666 71.8798 99 9 237
1902032S07435 1902 2 SI MM NOT_NAMED 1902-02-02 18:00:00 NR -9.19309 71.4805 main 1919 1872 _____P________ -1 -9.19309 71.4805 99 9 237
1902032S07435 1902 2 SI MM NOT_NAMED 1902-02-02 21:00:00 NR -9.45035 71.0773 main 1864 1816 _____P________ -1 -9.45035 71.0773 99 9 237
1902032S07435 1902 2 SI MM NOT_NAMED 1902-02-03 00:00:00 NR -9.70572 70.6758 main 1816 1769 _____P________ -1 -9.70572 70.6758 99 9 237
1902032S07435 1902 2 SI MM NOT_NAMED 1902-02-03 03:00:00 NR -9.95649 70.2815 main 1761 1714 _____P________ -1 -9.95649 70.2815 99 9 237
1902032S07435 1902 2 SI MM NOT_NAMED 1902-02-03 06:00:00 NR -10.2000 69.9000 reunion main 1714 1674 _____O________ -1 -10.2000 69.9000 99 9.90000 9 237
1902032S07435 1902 2 SI MM NOT_NAMED 1902-02-03 09:00:00 NR -10.4201 69.5568 main 1674 1627 _____P________ -1 -10.4201 69.5568 99 8 237
1902032S07435 1902 2 SI MM NOT_NAMED 1902-02-03 12:00:00 NR -10.6334 69.2250 main 1627 1587 _____P________ -1 -10.6334 69.2250 99 8 237
1902032S07435 1902 2 SI MM NOT_NAMED 1902-02-03 15:00:00 NR -10.8421 68.9015 main 1587 1548 _____P________ -1 -10.8421 68.9015 99 8 237
1902032S07435 1902 2 SI MM NOT_NAMED 1902-02-03 18:00:00 NR -11.0486 68.5832 main 1548 1509 _____P________ -1 -11.0486 68.5832 99 7 236
1902032S07435 1902 2 SI MM NOT_NAMED 1902-02-03 21:00:00 NR -11.2554 68.2670 main 1501 1462 _____P________ -1 -11.2554 68.2670 99 8 236
1902032S07435 1902 2 SI MM NOT_NAMED 1902-02-04 00:00:00 NR -11.4646 67.9498 main 1454 1415 _____P________ -1 -11.4646 67.9498 99 8 236
1902032S07435 1902 2 SI MM NOT_NAMED 1902-02-04 03:00:00 NR -11.6787 67.6286 main 1415 1376 _____P________ -1 -11.6787 67.6286 99 8 236
1902032S07435 1902 2 SI MM NOT_NAMED 1902-02-04 06:00:00 NR -11.9000 67.3000 reunion main 1376 1336 _____O________ -1 -11.9000 67.3000 99 9.90000 8 235
1902032S07435 1902 2 SI MM NOT_NAMED 1902-02-04 09:00:00 NR -12.1320 66.9549 main 1336 1282 _____P________ -1 -12.1320 66.9549 99 8 235
1902032S07435 1902 2 SI MM NOT_NAMED 1902-02-04 12:00:00 NR -12.3699 66.6039 main 1282 1243 _____P________ -1 -12.3699 66.6039 99 8 235
1902032S07435 1902 2 SI MM NOT_NAMED 1902-02-04 15:00:00 NR -12.6133 66.2476 main 1235 1196 _____P________ -1 -12.6133 66.2476 99 9 235
1902032S07435 1902 2 SI MM NOT_NAMED 1902-02-04 18:00:00 NR -12.8619 65.8862 main 1188 1141 _____P________ -1 -12.8619 65.8862 99 9 235
1902032S07435 1902 2 SI MM NOT_NAMED 1902-02-04 21:00:00 NR -13.1152 65.5204 main 1141 1095 _____P________ -1 -13.1152 65.5204 99 9 235
1902032S07435 1902 2 SI MM NOT_NAMED 1902-02-05 00:00:00 NR -13.3729 65.1504 main 1095 1048 _____P________ -1 -13.3729 65.1504 99 9 234
1902032S07435 1902 2 SI MM NOT_NAMED 1902-02-05 03:00:00 NR -13.6346 64.7768 main 1048 994 _____P________ -1 -13.6346 64.7768 99 9 234
1902032S07435 1902 2 SI MM NOT_NAMED 1902-02-05 06:00:00 NR -13.9000 64.4000 reunion main 994 948 _____O________ -1 -13.9000 64.4000 99 9.90000 9 234
1902032S07435 1902 2 SI MM NOT_NAMED 1902-02-05 09:00:00 NR -14.1557 64.0267 main 940 901 _____P________ -1 -14.1557 64.0267 99 9 235
1902032S07435 1902 2 SI MM NOT_NAMED 1902-02-05 12:00:00 NR -14.4146 63.6499 main 893 847 _____P________ -1 -14.4146 63.6499 99 9 235
1902032S07435 1902 2 SI MM NOT_NAMED 1902-02-05 15:00:00 NR -14.6777 63.2693 main 847 801 _____P________ -1 -14.6777 63.2693 99 9 234
1902032S07435 1902 2 SI MM NOT_NAMED 1902-02-05 18:00:00 NR -14.9464 62.8848 main 801 747 _____P________ -1 -14.9464 62.8848 99 9 234
1902032S07435 1902 2 SI MM NOT_NAMED 1902-02-05 21:00:00 NR -15.2218 62.4959 main 747 694 _____P________ -1 -15.2218 62.4959 99 9 233
1902032S07435 1902 2 SI MM NOT_NAMED 1902-02-06 00:00:00 NR -15.5050 62.1024 main 694 640 _____P________ -1 -15.5050 62.1024 99 10 233
1902032S07435 1902 2 SI MM NOT_NAMED 1902-02-06 03:00:00 NR -15.7974 61.7039 main 640 587 _____P________ -1 -15.7974 61.7039 99 10 232
1902032S07435 1902 2 SI MM NOT_NAMED 1902-02-06 06:00:00 NR -16.1000 61.3000 reunion main 587 534 _____O________ -1 -16.1000 61.3000 99 9.90000 10 235
1902032S07435 1902 2 SI MM NOT_NAMED 1902-02-06 09:00:00 NR -16.3786 60.8559 main 534 484 _____P________ -1 -16.3786 60.8559 99 10 237
1902032S07435 1902 2 SI MM NOT_NAMED 1902-02-06 12:00:00 NR -16.6633 60.4017 main 475 432 _____P________ -1 -16.6633 60.4017 99 11 236
1902032S07435 1902 2 SI MM NOT_NAMED 1902-02-06 15:00:00 NR -16.9595 59.9451 main 417 366 _____P________ -1 -16.9595 59.9451 99 11 235
1902032S07435 1902 2 SI MM NOT_NAMED 1902-02-06 18:00:00 NR -17.2724 59.4939 main 366 316 _____P________ -1 -17.2724 59.4939 99 11 233
1902032S07435 1902 2 SI MM NOT_NAMED 1902-02-06 21:00:00 NR -17.6074 59.0560 main 316 267 _____P________ -1 -17.6074 59.0560 99 11 229
1902032S07435 1902 2 SI MM NOT_NAMED 1902-02-07 00:00:00 NR -17.9699 58.6391 main 253 210 _____P________ -1 -17.9699 58.6391 99 11 225
1902032S07435 1902 2 SI MM NOT_NAMED 1902-02-07 03:00:00 NR -18.3656 58.2512 main 200 146 _____P________ -1 -18.3656 58.2512 99 11 220
1902032S07435 1902 2 SI MM NOT_NAMED 1902-02-07 06:00:00 NR -18.8000 57.9000 reunion main 146 89 _____O________ -1 -18.8000 57.9000 99 9.90000 12 213
1902032S07435 1902 2 SI MM NOT_NAMED 1902-02-07 09:00:00 NR -19.3466 57.5828 main 89 30 _____P________ -1 -19.3466 57.5828 99 13 206
1902032S07435 1902 2 SI MM NOT_NAMED 1902-02-07 12:00:00 NR -19.9413 57.2982 main 30 20 _____P________ -1 -19.9413 57.2982 99 13 203
1902032S07435 1902 2 SI MM NOT_NAMED 1902-02-07 15:00:00 NR -20.5642 57.0447 main 33 33 _____P________ -1 -20.5642 57.0447 99 13 200
1902032S07435 1902 2 SI MM NOT_NAMED 1902-02-07 18:00:00 NR -21.1953 56.8208 main 93 93 _____P________ -1 -21.1953 56.8208 99 13 197
1902032S07435 1902 2 SI MM NOT_NAMED 1902-02-07 21:00:00 NR -21.8145 56.6255 main 99 99 _____P________ -1 -21.8145 56.6255 99 13 196
1902032S07435 1902 2 SI MM NOT_NAMED 1902-02-08 00:00:00 NR -22.4018 56.4576 main 142 137 _____P________ -1 -22.4018 56.4576 99 12 194
1902032S07435 1902 2 SI MM NOT_NAMED 1902-02-08 03:00:00 NR -22.9370 56.3161 main 182 182 _____P________ -1 -22.9370 56.3161 99 10 193
1902032S07435 1902 2 SI MM NOT_NAMED 1902-02-08 06:00:00 NR -23.4000 56.2000 reunion main 231 231 _____O________ -1 -23.4000 56.2000 99 9.90000 9 193
1902032S07435 1902 2 SI MM NOT_NAMED 1902-02-08 09:00:00 NR -23.7761 56.1080 main 273 273 _____P________ -1 -23.7761 56.1080 99 7 192
1902032S07435 1902 2 SI MM NOT_NAMED 1902-02-08 12:00:00 NR -24.0717 56.0375 main 304 304 _____P________ -1 -24.0717 56.0375 99 5 192
1902032S07435 1902 2 SI MM NOT_NAMED 1902-02-08 15:00:00 NR -24.2983 55.9857 main 326 326 _____P________ -1 -24.2983 55.9857 99 4 191
1902032S07435 1902 2 SI MM NOT_NAMED 1902-02-08 18:00:00 NR -24.4675 55.9496 main 347 347 _____P________ -1 -24.4675 55.9496 99 3 192
1902032S07435 1902 2 SI MM NOT_NAMED 1902-02-08 21:00:00 NR -24.5908 55.9262 main 359 359 _____P________ -1 -24.5908 55.9262 99 2 192
1902032S07435 1902 2 SI MM NOT_NAMED 1902-02-09 00:00:00 NR -24.6796 55.9122 main 370 370 _____P________ -1 -24.6796 55.9122 99 2 0
1902032S07435 1902 2 SI MM NOT_NAMED 1902-02-09 03:00:00 NR -24.7455 55.9045 main 370 370 _____P________ -1 -24.7455 55.9045 99 1 0
1902032S07435 1902 2 SI MM NOT_NAMED 1902-02-09 06:00:00 NR -24.8000 55.9000 reunion main 381 _____O________ -1 -24.8000 55.9000 99 9.90000 1 193

About IBTrACS Database

This database is a web-friendly format of International Best Track Archive for Climate Stewardship (IBTrACS), a global best track data archive curated by NOAA dating back to 1842.

Updated: 2021-10-25